Flight Track Log - Related Links

Times and Time Zones

All times are in EST time to prevent confusion due to time zone crossing. See the N888FM flight status page for this flight to view local times or setup timezone preferences in your user account.

Time Position Orientation Groundspeed Altitude Reporting Facility
EST Latitude Longitude Course Direction KTS MPH feet Rate Location/Type
Mon 08:01:19 AM 41.2658 -75.7808 209° Southwest 151 174 4,900  Level New York Center
Mon 08:02:19 AM 41.2292 -75.8083 209° Southwest 169 194 5,800 900 Climbing New York Center
Mon 08:03:19 AM 41.1839 -75.8436 210° Southwest 185 213 6,700 1,050 Climbing New York Center
Mon 08:04:19 AM 41.1344 -75.8811 210° Southwest 191 220 7,900 1,100 Climbing New York Center
Mon 08:05:19 AM 41.0950 -75.9250 220° Southwest 191 220 8,900 950 Climbing New York Center
Mon 08:06:19 AM 41.0697 -75.9808 239° Southwest 184 212 9,800 950 Climbing New York Center
Mon 08:07:19 AM 41.0467 -76.0314 239° Southwest 184 212 10,800 1,050 Climbing New York Center
Mon 08:08:19 AM 41.0233 -76.0875 241° Southwest 169 194 11,900 1,041 Climbing New York Center
Mon 08:09:20 AM 41.0022 -76.1381 241° Southwest 162 186 12,900 950 Climbing New York Center
Mon 08:10:19 AM 40.9775 -76.1800 232° Southwest 156 180 13,800 958 Climbing New York Center
Mon 08:11:19 AM 40.9428 -76.2075 211° Southwest 162 186 14,800 1,000 Climbing New York Center
Mon 08:12:19 AM 40.8997 -76.2369 207° Southwest 172 198 15,800 1,050 Climbing New York Center
Mon 08:13:19 AM 40.8544 -76.2692 208° Southwest 172 198 16,900 1,240 Climbing New York Center
Mon 08:14:20 AM 40.8114 -76.2986 207° Southwest 172 198 18,300 1,150 Climbing New York Center
Mon 08:15:19 AM 40.7728 -76.3256 208° Southwest 172 198 19,200 900 Climbing New York Center
Mon 08:16:20 AM 40.7317 -76.3550 208° Southwest 172 198 20,100 850 Climbing New York Center
Mon 08:17:19 AM 40.6908 -76.3844 209° Southwest 172 198 20,900 807 Climbing New York Center
Mon 08:18:19 AM 40.6497 -76.4114 206° Southwest 167 192 21,700 800 Climbing New York Center
Mon 08:19:19 AM 40.6067 -76.4406 207° Southwest 167 192 22,500 800 Climbing New York Center
Mon 08:20:19 AM 40.5658 -76.4700 209° Southwest 167 192 23,300 800 Climbing New York Center
Mon 08:21:19 AM 40.5269 -76.4969 208° Southwest 167 192 24,100 800 Climbing New York Center
Mon 08:22:19 AM 40.4861 -76.5233 206° Southwest 167 192 24,900 800 Climbing New York Center
Mon 08:23:19 AM 40.4453 -76.5500 206° Southwest 167 192 25,700 550 Climbing New York Center
Mon 08:24:19 AM 40.4042 -76.5794 209° Southwest 167 192 26,000 150 Climbing New York Center
Mon 08:25:19 AM 40.3608 -76.6111 209° Southwest 172 198 26,000  Level New York Center
Mon 08:26:19 AM 40.3111 -76.6450 207° Southwest 184 212 26,000  Level New York Center
Mon 08:28:15 AM 40.2106 -76.7133 207° Southwest 201 231 26,000  Level Washington Center
Mon 08:29:16 AM 40.1603 -76.7478 208° Southwest 206 237 26,000  Level Washington Center
Mon 08:30:17 AM 40.1078 -76.7794 205° Southwest 206 237 26,000  Level Washington Center
Mon 08:31:15 AM 40.0553 -76.8167 208° Southwest 206 237 26,000  Level Washington Center
Mon 08:32:16 AM 40.0028 -76.8536 208° Southwest 211 243 26,000  Level Washington Center
Mon 08:33:16 AM 39.9506 -76.8878 207° Southwest 211 243 26,000  Level Washington Center
Mon 08:34:17 AM 39.8981 -76.9219 207° Southwest 211 243 26,000  Level Washington Center
Mon 08:35:17 AM 39.8456 -76.9561 207° Southwest 216 249 26,000  Level Washington Center
Mon 08:36:15 AM 39.7950 -76.9931 209° Southwest 216 249 26,000  Level Washington Center
Mon 08:37:16 AM 39.7425 -77.0272 207° Southwest 216 249 26,000  Level Washington Center
Mon 08:38:16 AM 39.6900 -77.0611 206° Southwest 216 249 26,000  Level Washington Center
Mon 08:39:17 AM 39.6397 -77.0978 209° Southwest 216 249 26,000  Level Washington Center
Mon 08:40:17 AM 39.5850 -77.1289 204° Southwest 216 249 26,000  Level Washington Center
Mon 08:41:18 AM 39.5325 -77.1683 210° Southwest 216 249 26,000  Level Washington Center
Mon 08:42:15 AM 39.4819 -77.2022 207° Southwest 216 249 26,000  Level Washington Center
Mon 08:43:16 AM 39.4294 -77.2358 206° Southwest 216 249 26,000  Level Washington Center
Mon 08:44:16 AM 39.3769 -77.2697 207° Southwest 216 249 26,000  Level Washington Center
Mon 08:45:16 AM 39.3244 -77.3058 208° Southwest 221 254 26,000  Level Washington Center
Mon 08:46:17 AM 39.2697 -77.3422 207° Southwest 221 254 26,000  Level Washington Center
Mon 08:47:15 AM 39.2128 -77.3811 208° Southwest 221 254 26,000  Level Washington Center
Mon 08:48:16 AM 39.1603 -77.4144 206° Southwest 221 254 26,000  Level Washington Center
Mon 08:49:17 AM 39.1033 -77.4506 206° Southwest 221 254 26,000  Level Washington Center
Mon 08:50:15 AM 39.0506 -77.4867 208° Southwest 221 254 26,000  Level Washington Center
Mon 08:51:16 AM 38.9958 -77.5228 207° Southwest 221 254 26,000  Level Washington Center
Mon 08:52:16 AM 38.9431 -77.5586 208° Southwest 221 254 26,000  Level Washington Center
Mon 08:53:17 AM 38.8883 -77.5919 205° Southwest 221 254 26,000  Level Washington Center
Mon 08:54:15 AM 38.8400 -77.6253 208° Southwest 221 254 26,000  Level Washington Center
Mon 08:55:16 AM 38.7808 -77.6608 205° Southwest 221 254 26,000  Level Washington Center
Mon 08:56:17 AM 38.7261 -77.6964 207° Southwest 227 261 26,000  Level Washington Center
Mon 08:57:15 AM 38.6692 -77.7347 208° Southwest 227 261 26,000  Level Washington Center
Mon 08:58:16 AM 38.6100 -77.7731 207° Southwest 227 261 26,000  Level Washington Center
Mon 08:59:16 AM 38.5531 -77.8083 206° Southwest 232 267 26,000  Level Washington Center
Mon 09:00:17 AM 38.4961 -77.8464 208° Southwest 232 267 26,000  Level Washington Center
Mon 09:01:15 AM 38.4392 -77.8819 206° Southwest 232 267 26,000  Level Washington Center
Mon 09:02:16 AM 38.3822 -77.9200 208° Southwest 232 267 26,000  Level Washington Center
Mon 09:03:17 AM 38.3231 -77.9578 207° Southwest 232 267 26,000  Level Washington Center
Mon 09:04:15 AM 38.2661 -77.9931 206° Southwest 232 267 26,000  Level Washington Center
Mon 09:05:15 AM 38.2089 -78.0308 207° Southwest 232 267 26,000  Level Washington Center
Mon 09:06:16 AM 38.1519 -78.0686 208° Southwest 237 273 26,000  Level Washington Center
Mon 09:07:16 AM 38.0947 -78.1036 206° Southwest 237 273 26,000  Level Washington Center
Mon 09:08:17 AM 38.0356 -78.1411 207° Southwest 237 273 26,000  Level Washington Center
Mon 09:09:18 AM 37.9847 -78.1869 215° Southwest 242 278 26,000  Level Washington Center
Mon 09:10:15 AM 37.9356 -78.2325 216° Southwest 235 270 26,000  Level Washington Center
Mon 09:11:17 AM 37.8867 -78.2808 218° Southwest 230 265 26,000  Level Washington Center
Mon 09:12:18 AM 37.8311 -78.3314 216° Southwest 230 265 26,000  Level Washington Center
Mon 09:13:15 AM 37.7781 -78.3819 217° Southwest 230 265 26,000  Level Washington Center
Mon 09:14:16 AM 37.7267 -78.4300 216° Southwest 230 265 26,000  Level Washington Center
Mon 09:15:17 AM 37.6756 -78.4781 217° Southwest 230 265 26,000  Level Washington Center
Mon 09:16:15 AM 37.6264 -78.5233 216° Southwest 230 265 26,000  Level Washington Center
Mon 09:17:15 AM 37.5772 -78.5739 219° Southwest 230 265 26,000  Level Washington Center
Mon 09:18:16 AM 37.5239 -78.6214 215° Southwest 230 265 26,000  Level Washington Center
Mon 09:19:16 AM 37.4725 -78.6692 216° Southwest 230 265 26,000  Level Washington Center
Mon 09:20:17 AM 37.4192 -78.7167 215° Southwest 230 265 26,000  Level Washington Center
Mon 09:21:15 AM 37.3636 -78.7692 217° Southwest 230 265 26,000  Level Washington Center
Mon 09:22:15 AM 37.3103 -78.8192 217° Southwest 230 265 26,000  Level Washington Center
Mon 09:23:15 AM 37.2567 -78.8667 215° Southwest 230 265 26,000  Level Washington Center
Mon 09:24:16 AM 37.2053 -78.9139 216° Southwest 230 265 26,000  Level Washington Center
Mon 09:25:17 AM 37.1539 -78.9639 218° Southwest 230 265 26,000  Level Washington Center
Mon 09:26:18 AM 37.1067 -79.0061 215° Southwest 230 265 26,000  Level Washington Center
Mon 09:27:15 AM 37.0553 -79.0558 218° Southwest 230 265 26,000  Level Washington Center
Mon 09:28:16 AM 37.0017 -79.1028 215° Southwest 230 265 26,000  Level Washington Center
Mon 09:29:17 AM 36.9503 -79.1525 218° Southwest 230 265 26,000  Level Washington Center
Mon 09:30:15 AM 36.8903 -79.2069 216° Southwest 230 265 26,000  Level Washington Center
Mon 09:31:16 AM 36.8406 -79.2564 219° Southwest 230 265 26,000  Level Washington Center
Mon 09:32:17 AM 36.7850 -79.3031 214° Southwest 230 265 26,000  Level Washington Center
Mon 09:33:18 AM 36.7314 -79.3525 216° Southwest 235 270 26,000  Level Washington Center
Mon 09:34:15 AM 36.6775 -79.4017 216° Southwest 235 270 26,000  Level Washington Center
Mon 09:35:16 AM 36.6322 -79.4458 218° Southwest 235 270 26,000  Level Washington Center
Mon 09:36:18 AM 36.5764 -79.4975 217° Southwest 240 276 26,000  Level Washington Center
Mon 09:37:15 AM 36.5228 -79.5464 216° Southwest 240 276 26,000  Level Washington Center
Mon 09:39:42 AM 36.3811 -79.6703 215° Southwest 244 281 26,000  Level Atlanta Center
Mon 09:40:41 AM 36.3306 -79.7194 218° Southwest 244 281 26,000  Level Atlanta Center
Mon 09:41:42 AM 36.2800 -79.7608 213° Southwest 244 281 26,000  Level Atlanta Center
Mon 09:42:41 AM 36.2233 -79.8128 216° Southwest 249 287 26,000  Level Atlanta Center
Mon 09:43:41 AM 36.1686 -79.8617 216° Southwest 249 287 26,000  Level Atlanta Center
Mon 09:44:41 AM 36.1139 -79.9058 213° Southwest 249 287 26,000  Level Atlanta Center
Mon 09:45:41 AM 36.0533 -79.9653 218° Southwest 249 287 26,000  Level Atlanta Center
Mon 09:46:41 AM 35.9919 -80.0044 207° Southwest 249 287 26,000  Level Atlanta Center
Mon 09:47:42 AM 35.9242 -80.0333 199° South 255 293 26,000 50 Level Atlanta Center
Mon 09:48:42 AM 35.8586 -80.0700 204° Southwest 255 293 26,100  Climbing Atlanta Center
Mon 09:49:41 AM 35.8033 -80.1033 206° Southwest 255 293 26,000 -50 Descending Atlanta Center
Mon 09:50:41 AM 35.7372 -80.1294 198° South 250 288 26,000  Level Atlanta Center
Mon 09:51:41 AM 35.6739 -80.1633 203° Southwest 250 288 26,000  Level Atlanta Center
Mon 09:52:41 AM 35.6081 -80.1969 203° Southwest 250 288 26,000  Level Atlanta Center
Mon 09:53:41 AM 35.5422 -80.2308 203° Southwest 250 288 26,000  Level Atlanta Center
Mon 09:54:42 AM 35.4786 -80.2642 203° Southwest 250 288 26,000  Level Atlanta Center
Mon 09:55:42 AM 35.4150 -80.2953 202° Southwest 250 288 26,000  Level Atlanta Center
Mon 09:56:42 AM 35.3472 -80.3289 202° Southwest 250 288 26,000  Level Atlanta Center
Mon 09:57:42 AM 35.2772 -80.3625 201° Southwest 255 293 26,000  Level Atlanta Center
Mon 09:58:41 AM 35.2136 -80.3933 202° Southwest 255 293 26,000  Level Atlanta Center
Mon 09:59:42 AM 35.1456 -80.4269 202° Southwest 255 293 26,000  Level Atlanta Center
Mon 10:01:41 AM 35.0131 -80.4925 202° Southwest 258 297 26,000  Level Jacksonville Center
Mon 10:02:41 AM 34.9492 -80.5247 202° Southwest 258 297 26,000  Level Jacksonville Center
Mon 10:03:41 AM 34.8808 -80.5569 201° Southwest 258 297 26,000  Level Jacksonville Center
Mon 10:04:41 AM 34.8167 -80.5889 202° Southwest 253 291 26,000  Level Jacksonville Center
Mon 10:05:41 AM 34.7464 -80.6211 201° Southwest 247 284 26,000  Level Jacksonville Center
Mon 10:06:41 AM 34.6822 -80.6531 202° Southwest 247 284 26,000  Level Jacksonville Center
Mon 10:07:41 AM 34.6161 -80.6903 205° Southwest 247 284 26,000  Level Jacksonville Center
Mon 10:08:41 AM 34.5542 -80.7194 201° Southwest 263 303 26,000  Level Jacksonville Center
Mon 10:09:41 AM 34.4900 -80.7539 204° Southwest 263 303 26,000  Level Jacksonville Center
Mon 10:10:41 AM 34.4239 -80.7856 202° Southwest 263 303 26,000  Level Jacksonville Center
Mon 10:11:41 AM 34.3575 -80.8125 199° South 263 303 26,000  Level Jacksonville Center
Mon 10:12:41 AM 34.2933 -80.8442 202° Southwest 258 297 26,000  Level Jacksonville Center
Mon 10:13:41 AM 34.2250 -80.8783 202° Southwest 249 287 26,000  Level Jacksonville Center
Mon 10:14:41 AM 34.1608 -80.9100 202° Southwest 249 287 26,000  Level Jacksonville Center
Mon 10:15:41 AM 34.0947 -80.9417 202° Southwest 255 293 26,000  Level Jacksonville Center
Mon 10:16:41 AM 34.0306 -80.9731 202° Southwest 255 293 26,000  Level Jacksonville Center
Mon 10:17:41 AM 33.9622 -81.0047 201° Southwest 255 293 26,000  Level Jacksonville Center
Mon 10:18:41 AM 33.8978 -81.0336 200° South 255 293 26,000  Level Jacksonville Center
Mon 10:19:41 AM 33.8272 -81.0575 196° South 250 288 26,000  Level Jacksonville Center
Mon 10:20:41 AM 33.7522 -81.0642 184° South 261 300 26,000  Level Jacksonville Center
Mon 10:21:41 AM 33.6750 -81.0733 186° South 267 307 26,000  Level Jacksonville Center
Mon 10:22:41 AM 33.5981 -81.0772 182° South 277 319 26,000  Level Jacksonville Center
Mon 10:23:41 AM 33.5231 -81.0839 184° South 277 319 26,000  Level Jacksonville Center
Mon 10:24:41 AM 33.4481 -81.0928 186° South 277 319 26,000  Level Jacksonville Center
Mon 10:25:41 AM 33.3686 -81.0994 184° South 277 319 26,000  Level Jacksonville Center
Mon 10:26:41 AM 33.2917 -81.1058 184° South 277 319 26,000  Level Jacksonville Center
Mon 10:27:41 AM 33.2122 -81.1075 181° South 277 319 26,000  Level Jacksonville Center
Mon 10:28:41 AM 33.1331 -81.1067 179° South 282 325 26,000  Level Jacksonville Center
Mon 10:29:41 AM 33.0536 -81.1081 181° South 282 325 26,000  Level Jacksonville Center
Mon 10:30:41 AM 32.9744 -81.1072 179° South 287 330 26,000  Level Jacksonville Center
Mon 10:31:41 AM 32.8931 -81.1064 180° South 287 330 26,000  Level Jacksonville Center
Mon 10:32:41 AM 32.8136 -81.1081 181° South 287 330 26,000  Level Jacksonville Center
Mon 10:33:41 AM 32.7344 -81.1094 181° South 287 330 26,000  Level Jacksonville Center
Mon 10:34:41 AM 32.6572 -81.1086 179° South 287 330 26,000  Level Jacksonville Center
Mon 10:35:41 AM 32.5861 -81.1100 181° South 287 330 26,000  Level Jacksonville Center
Mon 10:36:41 AM 32.5006 -81.1092 180° South 287 330 26,000  Level Jacksonville Center
Mon 10:37:41 AM 32.4192 -81.1083 180° South 287 330 26,000  Level Jacksonville Center
Mon 10:38:41 AM 32.3439 -81.1072 179° South 294 338 26,000  Level Jacksonville Center
Mon 10:39:41 AM 32.2647 -81.1089 181° South 289 333 26,000  Level Jacksonville Center
Mon 10:40:41 AM 32.1853 -81.1081 179° South 289 333 26,000  Level Jacksonville Center
Mon 10:41:41 AM 32.1058 -81.1094 181° South 289 333 26,000  Level Jacksonville Center
Mon 10:42:41 AM 32.0267 -81.1111 181° South 289 333 26,000  Level Jacksonville Center
Mon 10:43:41 AM 31.9472 -81.1100 179° South 289 333 26,000  Level Jacksonville Center
Mon 10:44:41 AM 31.8597 -81.1094 180° South 289 333 26,000  Level Jacksonville Center
Mon 10:45:41 AM 31.7781 -81.1086 180° South 294 338 26,000  Level Jacksonville Center
Mon 10:46:41 AM 31.7072 -81.1100 181° South 285 328 26,000  Level Jacksonville Center
Mon 10:47:41 AM 31.6175 -81.1092 180° South 290 334 26,000  Level Jacksonville Center
Mon 10:48:41 AM 31.5381 -81.1106 181° South 290 334 26,000  Level Jacksonville Center
Mon 10:49:41 AM 31.4650 -81.1097 179° South 290 334 26,000  Level Jacksonville Center
Mon 10:50:41 AM 31.3753 -81.1089 180° South 290 334 26,000  Level Jacksonville Center
Mon 10:51:41 AM 31.2939 -81.1106 181° South 290 334 26,000  Level Jacksonville Center
Mon 10:52:41 AM 31.2125 -81.1097 179° South 290 334 26,000  Level Jacksonville Center
Mon 10:53:41 AM 31.1311 -81.1111 181° South 290 334 26,000  Level Jacksonville Center
Mon 10:54:41 AM 31.0494 -81.1103 179° South 290 334 26,000  Level Jacksonville Center
Mon 10:55:41 AM 30.9703 -81.1117 181° South 290 334 26,000  Level Jacksonville Center
Mon 10:56:41 AM 30.8889 -81.1108 179° South 290 334 26,000  Level Jacksonville Center
Mon 10:57:41 AM 30.8094 -81.1100 179° South 290 334 26,000  Level Jacksonville Center
Mon 10:58:41 AM 30.7258 -81.1092 180° South 290 334 26,000  Level Jacksonville Center
Mon 10:59:41 AM 30.6467 -81.1131 182° South 290 334 26,000  Level Jacksonville Center
Mon 11:00:41 AM 30.5672 -81.1119 179° South 290 334 26,000  Level Jacksonville Center
Mon 11:01:41 AM 30.4817 -81.1114 180° South 290 334 26,000  Level Jacksonville Center
Mon 11:02:41 AM 30.4003 -81.1128 181° South 290 334 26,000  Level Jacksonville Center
Mon 11:03:41 AM 30.3167 -81.1119 180° South 290 334 26,000 -150 Level Jacksonville Center
Mon 11:04:41 AM 30.2353 -81.1133 181° South 290 334 25,700 -750 Descending Jacksonville Center
Mon 11:05:41 AM 30.1456 -81.1150 181° South 297 342 24,500 -1,200 Descending Jacksonville Center
Mon 11:06:41 AM 30.0536 -81.1144 180° South 318 366 23,300 -1,250 Descending Jacksonville Center
Mon 11:07:41 AM 29.9639 -81.1136 180° South 329 379 22,000 -1,209 Descending Jacksonville Center
Mon 11:08:50 AM 29.8681 -81.1178 182° South 317 365 20,700 -1,185 Descending Jacksonville Center
Mon 11:09:02 AM 29.8469 -81.1133 170° South 317 365 20,400 -1,529 Descending Jacksonville Center
Mon 11:09:41 AM 29.7864 -81.1169 183° South 329 379 19,400 -1,343 Descending Jacksonville Center
Mon 11:10:09 AM 29.7511 -81.1150 177° South 322 371 18,900 -1,400 Descending Jacksonville Center
Mon 11:10:41 AM 29.7008 -81.1136 179° South 329 379 18,000 -1,377 Descending Jacksonville Center
Mon 11:11:10 AM 29.6528 -81.1144 181° South 318 366 17,500 -1,300 Descending Jacksonville Center
Mon 11:11:41 AM 29.6069 -81.1200 186° South 324 373 16,700 -1,377 Descending Jacksonville Center
Mon 11:12:11 AM 29.5672 -81.1136 172° South 314 361 16,100 -1,400 Descending Jacksonville Center
Mon 11:12:41 AM 29.5236 -81.1169 184° South 324 373 15,300 -1,377 Descending Jacksonville Center
Mon 11:13:12 AM 29.4817 -81.1153 178° South 307 353 14,700 -1,300 Descending Jacksonville Center
Mon 11:13:41 AM 29.4422 -81.1183 184° South 309 356 14,000 -1,377 Descending Jacksonville Center
Mon 11:14:13 AM 29.4025 -81.1142 175° South 283 326 13,300 -1,400 Descending Jacksonville Center
Mon 11:14:41 AM 29.3647 -81.1150 181° South 287 330 12,600 -1,444 Descending Jacksonville Center
Mon 11:15:07 AM 29.3314 -81.1156 181° South 277 319 12,000 -1,000 Descending Jacksonville Center
Mon 11:15:41 AM 29.2875 -81.1139 178° South 287 330 11,600 -1,085 Descending Jacksonville Center
Mon 11:16:41 AM 29.2103 -81.1083 176° South 282 325 10,300 -800 Descending Jacksonville Center
Mon 11:17:41 AM 29.1350 -81.1000 174° South 282 325 10,000 -150 Descending Jacksonville Center
Mon 11:18:41 AM 29.0597 -81.0967 178° South 275 316 10,000 -233 Level Jacksonville Center
Mon 11:20:41 AM 28.9000 -81.0833 176° South 278 320 9,300 -555 Descending Orlando TRACON
Mon 11:21:34 AM 28.8333 -81.0667 168° South 284 327 8,400 -1,000 Descending Orlando TRACON
Mon 11:22:41 AM 28.7500 -81.0333 161° South 284 327 7,300 -992 Descending Orlando TRACON
Mon 11:23:41 AM 28.6833 -81.0000 156° South 268 308 6,300 -650 Descending Orlando TRACON
Mon 11:24:41 AM 28.6167 -80.9833 168° South 245 282 6,000 -158 Descending Orlando TRACON
Mon 11:25:35 AM 28.6000 -81.0333 249° West 235 270 6,000  Level Orlando TRACON
Mon 11:26:35 AM 28.6000 -81.1167 270° West 239 275 6,000  Level Orlando TRACON
Mon 11:27:35 AM 28.6000 -81.1667 270° West 184 212 6,000  Level Orlando TRACON
Mon 11:28:30 AM 28.6500 -81.1833 344° North 221 254 6,000 -522 Level Orlando TRACON
Mon 11:29:30 AM 28.7167 -81.1833 360° North 214 246 5,000 -500 Descending Orlando TRACON
Mon 11:30:30 AM 28.7167 -81.2333 270° West 154 177 5,000 -316 Level Orlando TRACON
Mon 11:31:24 AM 28.7333 -81.2833 291° West 160 184 4,400 -455 Descending Orlando TRACON
Mon 11:32:42 AM 28.7000 -81.3167 221° Southwest 170 196 4,000 -227 Descending Orlando TRACON
Mon 11:33:36 AM 28.6500 -81.3167 180° South 172 198 3,900 -421 Descending Orlando TRACON
Mon 11:34:36 AM 28.6000 -81.3167 180° South 165 190 3,200 -800 Descending Orlando TRACON
Mon 11:35:36 AM 28.5667 -81.3167 180° South 167 192 2,300 -900 Descending Orlando TRACON
Mon 11:36:36 AM 28.5167 -81.3167 180° South 151 174 1,400 -800 Descending Orlando TRACON
Mon 11:37:36 AM 28.4667 -81.3167 180° South 151 174 700 -700 Descending Orlando TRACON
Mon 11:39:00 AM 28.4294 -81.3090 184° South  Level Estimated

Login

Don't have an account? Register now (free) for customized features, flight alerts, and more!